createdAt,value
2022-07-27T00:01:50.850Z,19.52
2022-07-27T00:04:19.003Z,19.85
2022-07-27T00:06:45.835Z,20.15
2022-07-27T00:09:12.959Z,20.08
2022-07-27T00:11:39.899Z,20.35
2022-07-27T00:14:06.729Z,19.85
2022-07-27T00:16:33.518Z,19.77
2022-07-27T00:19:00.306Z,19.80
2022-07-27T00:21:27.568Z,19.88
2022-07-27T00:23:54.664Z,19.08
2022-07-27T00:26:22.044Z,19.80
2022-07-27T00:28:49.672Z,19.10
2022-07-27T00:31:16.738Z,20.45
2022-07-27T00:33:43.628Z,20.00
2022-07-27T00:36:10.685Z,20.50
2022-07-27T00:38:37.984Z,18.98
2022-07-27T00:41:05.423Z,18.83
2022-07-27T00:43:32.567Z,18.90
2022-07-27T00:45:59.427Z,18.92
2022-07-27T00:48:31.647Z,19.38
2022-07-27T00:50:59.518Z,19.80
2022-07-27T00:53:26.478Z,20.13
2022-07-27T00:55:53.908Z,19.70
2022-07-27T00:58:20.885Z,19.35
2022-07-27T01:00:47.950Z,20.48
2022-07-27T01:03:16.486Z,19.90
2022-07-27T01:05:44.187Z,20.10
2022-07-27T01:08:13.876Z,19.80
2022-07-27T01:10:41.955Z,20.25
2022-07-27T01:13:12.995Z,20.40
2022-07-27T01:15:40.610Z,21.38
2022-07-27T01:18:12.183Z,20.98
2022-07-27T01:20:41.575Z,20.05
2022-07-27T01:23:09.510Z,20.73
2022-07-27T01:25:36.425Z,19.70
2022-07-27T01:28:03.708Z,19.58
2022-07-27T01:30:30.654Z,20.20
2022-07-27T01:33:05.152Z,20.23
2022-07-27T01:35:32.310Z,20.33
2022-07-27T01:37:59.451Z,20.30
2022-07-27T01:40:26.574Z,20.83
2022-07-27T01:42:53.345Z,20.40
2022-07-27T01:45:20.503Z,19.67
2022-07-27T01:47:47.410Z,19.65
2022-07-27T01:50:14.269Z,19.70
2022-07-27T01:52:40.979Z,20.10
2022-07-27T01:55:10.081Z,19.17
2022-07-27T01:57:37.855Z,19.88
2022-07-27T02:00:07.980Z,18.90
2022-07-27T02:02:39.802Z,17.80
2022-07-27T02:05:07.805Z,17.58
2022-07-27T02:07:34.629Z,17.17
2022-07-27T02:10:01.438Z,17.38
2022-07-27T02:12:38.095Z,16.88
2022-07-27T02:15:15.314Z,16.45
2022-07-27T02:17:44.795Z,17.20
2022-07-27T02:20:14.395Z,16.85
2022-07-27T02:22:41.510Z,17.25
2022-07-27T02:25:09.613Z,17.27
2022-07-27T02:27:36.510Z,17.17
2022-07-27T02:30:05.470Z,16.67
2022-07-27T02:32:32.232Z,17.92
2022-07-27T02:34:59.325Z,16.98
2022-07-27T02:37:26.424Z,17.38
2022-07-27T02:39:53.360Z,17.05
2022-07-27T02:42:20.515Z,18.90
2022-07-27T02:44:47.256Z,18.25
2022-07-27T02:47:13.983Z,16.83
2022-07-27T02:49:40.776Z,16.70
2022-07-27T02:52:07.692Z,16.50
2022-07-27T02:54:34.853Z,17.95
2022-07-27T02:57:05.044Z,18.00
2022-07-27T02:59:32.006Z,17.38
2022-07-27T03:01:58.941Z,17.42
2022-07-27T03:04:25.945Z,17.05
2022-07-27T03:06:53.048Z,17.15
2022-07-27T03:09:19.915Z,16.83
2022-07-27T03:11:59.984Z,16.33
2022-07-27T03:14:26.797Z,16.42
2022-07-27T03:16:53.924Z,17.95
2022-07-27T03:19:20.807Z,17.10
2022-07-27T03:21:47.504Z,17.30
2022-07-27T03:24:14.267Z,17.58
2022-07-27T03:26:40.973Z,17.30
2022-07-27T03:29:07.832Z,15.88
2022-07-27T03:31:34.736Z,16.73
2022-07-27T03:34:02.198Z,17.90
2022-07-27T03:36:29.144Z,17.92
2022-07-27T03:38:58.041Z,16.63
2022-07-27T03:41:25.760Z,16.10
2022-07-27T03:43:52.549Z,16.77
2022-07-27T03:46:19.382Z,15.63
2022-07-27T03:48:46.650Z,15.68
2022-07-27T03:51:13.585Z,16.08
2022-07-27T03:53:40.378Z,15.65
2022-07-27T03:56:07.113Z,14.82
2022-07-27T03:58:33.930Z,15.60
2022-07-27T04:01:01.006Z,15.98
2022-07-27T04:03:27.838Z,15.55
2022-07-27T04:05:54.834Z,16.48
2022-07-27T04:08:21.625Z,14.85
2022-07-27T04:10:48.461Z,14.40
2022-07-27T04:13:15.910Z,15.10
2022-07-27T04:15:44.594Z,15.48
2022-07-27T04:18:11.278Z,16.60
2022-07-27T04:20:38.001Z,16.88
2022-07-27T04:23:04.784Z,16.85
2022-07-27T04:25:31.634Z,15.93
2022-07-27T04:27:58.718Z,17.15
2022-07-27T04:30:25.867Z,16.23
2022-07-27T04:32:52.935Z,16.70
2022-07-27T04:35:25.707Z,16.40
2022-07-27T04:37:58.330Z,16.10
2022-07-27T04:40:27.259Z,17.75
2022-07-27T04:42:53.959Z,16.65
2022-07-27T04:45:20.676Z,16.75
2022-07-27T04:47:47.461Z,16.00
2022-07-27T04:50:14.198Z,16.60
2022-07-27T04:52:40.929Z,17.60
2022-07-27T04:55:08.056Z,17.02
2022-07-27T04:57:34.876Z,17.42
2022-07-27T05:00:01.615Z,17.20
2022-07-27T05:02:29.377Z,17.10
2022-07-27T05:04:56.122Z,17.73
2022-07-27T05:07:22.895Z,17.83
2022-07-27T05:09:49.621Z,19.05
2022-07-27T05:12:16.363Z,18.48
2022-07-27T05:14:43.383Z,16.95
2022-07-27T05:17:10.311Z,17.38
2022-07-27T05:19:40.545Z,18.20
2022-07-27T05:22:09.050Z,17.00
2022-07-27T05:24:35.930Z,17.30
2022-07-27T05:27:03.103Z,16.50
2022-07-27T05:29:29.833Z,16.52
2022-07-27T05:31:56.668Z,17.25
2022-07-27T05:34:23.550Z,17.38
2022-07-27T05:36:50.263Z,17.25
2022-07-27T05:39:17.280Z,18.25
2022-07-27T05:41:44.114Z,17.85
2022-07-27T05:44:10.932Z,17.88
2022-07-27T05:46:37.768Z,17.80
2022-07-27T05:49:04.920Z,17.85
2022-07-27T05:51:31.981Z,18.42
2022-07-27T05:53:59.284Z,18.17
2022-07-27T05:56:26.246Z,18.75
2022-07-27T05:58:53.628Z,18.13
2022-07-27T06:01:20.670Z,18.27
2022-07-27T06:03:47.743Z,17.83
2022-07-27T06:06:33.232Z,18.40
2022-07-27T06:09:01.445Z,17.98
2022-07-27T06:11:28.231Z,17.80
2022-07-27T06:13:55.854Z,17.55
2022-07-27T06:16:23.713Z,19.48
2022-07-27T06:18:50.521Z,18.67
2022-07-27T06:21:17.654Z,18.70
2022-07-27T06:23:44.530Z,18.80
2022-07-27T06:26:11.283Z,18.55
2022-07-27T06:28:38.015Z,18.60
2022-07-27T06:31:04.904Z,18.42
2022-07-27T06:33:34.138Z,20.10
2022-07-27T06:36:02.096Z,17.90
2022-07-27T06:38:29.337Z,17.95
2022-07-27T06:40:56.247Z,18.50
2022-07-27T06:43:26.285Z,18.35
2022-07-27T06:45:54.645Z,18.65
2022-07-27T06:48:21.821Z,19.55
2022-07-27T06:50:49.477Z,19.67
2022-07-27T06:53:20.772Z,20.55
2022-07-27T06:55:48.421Z,20.58
2022-07-27T06:58:15.449Z,19.55
2022-07-27T07:00:42.479Z,19.52
2022-07-27T07:03:09.926Z,20.27
2022-07-27T07:05:43.303Z,20.38
2022-07-27T07:08:11.941Z,21.00
2022-07-27T07:10:40.247Z,20.60
2022-07-27T07:13:08.020Z,19.67
2022-07-27T07:15:36.915Z,20.00
2022-07-27T07:18:04.141Z,20.90
2022-07-27T07:20:31.397Z,20.38
2022-07-27T07:22:58.913Z,21.58
2022-07-27T07:25:27.821Z,20.02
2022-07-27T07:27:55.869Z,20.73
2022-07-27T07:30:23.493Z,20.63
2022-07-27T07:32:50.386Z,21.33
2022-07-27T07:35:17.250Z,19.45
2022-07-27T07:37:44.353Z,21.92
2022-07-27T07:40:42.176Z,20.77
2022-07-27T07:43:01.402Z,19.90
2022-07-27T07:45:29.511Z,20.38
2022-07-27T07:47:57.048Z,20.98
2022-07-27T07:50:24.387Z,20.40
2022-07-27T07:52:52.987Z,20.73
2022-07-27T07:55:25.092Z,20.80
2022-07-27T07:57:53.164Z,20.92
2022-07-27T08:00:21.704Z,19.65
2022-07-27T08:02:51.008Z,19.88
2022-07-27T08:05:18.641Z,21.15
2022-07-27T08:07:45.914Z,20.13
2022-07-27T08:10:14.897Z,20.95
2022-07-27T08:12:44.734Z,21.27
2022-07-27T08:15:13.718Z,21.42
2022-07-27T08:17:40.801Z,21.15
2022-07-27T08:20:07.933Z,20.95
2022-07-27T08:22:35.609Z,21.42
2022-07-27T08:25:03.345Z,21.10
2022-07-27T08:27:30.064Z,21.77
2022-07-27T08:30:08.142Z,22.20
2022-07-27T08:32:53.651Z,20.70
2022-07-27T08:35:21.262Z,21.23
2022-07-27T08:37:48.192Z,20.75
2022-07-27T08:43:03.528Z,22.20
2022-07-27T08:45:32.618Z,22.92
2022-07-27T08:47:59.932Z,20.33
2022-07-27T08:50:30.585Z,20.60
2022-07-27T08:53:09.435Z,20.67
2022-07-27T08:55:38.714Z,21.08
2022-07-27T08:58:06.566Z,21.95
2022-07-27T09:00:34.661Z,21.52
2022-07-27T09:03:03.065Z,20.95
2022-07-27T09:05:37.565Z,21.58
2022-07-27T09:08:21.342Z,21.20
2022-07-27T09:10:48.200Z,20.90
2022-07-27T09:13:27.379Z,21.02
2022-07-27T09:18:47.014Z,20.80
2022-07-27T09:21:19.243Z,22.40
2022-07-27T09:24:44.416Z,22.98
2022-07-27T09:27:04.155Z,22.42
2022-07-27T09:29:35.229Z,21.55
2022-07-27T09:32:15.043Z,22.85
2022-07-27T09:34:42.195Z,22.05
2022-07-27T09:37:12.429Z,22.08
2022-07-27T09:39:39.479Z,20.65
2022-07-27T09:42:08.260Z,20.80
2022-07-27T09:44:43.434Z,21.02
2022-07-27T09:47:28.670Z,21.80
2022-07-27T09:49:58.105Z,21.27
2022-07-27T09:52:29.311Z,20.63
2022-07-27T09:55:04.291Z,22.00
2022-07-27T10:00:13.526Z,21.08
2022-07-27T10:02:42.749Z,22.85
2022-07-27T10:05:10.253Z,22.13
2022-07-27T10:07:38.536Z,20.38
2022-07-27T10:10:06.254Z,21.00
2022-07-27T10:12:33.032Z,21.55
2022-07-27T10:14:59.781Z,21.63
2022-07-27T10:17:27.121Z,20.88
2022-07-27T10:19:54.861Z,22.17
2022-07-27T10:23:07.560Z,21.05
2022-07-27T10:25:38.115Z,21.20
2022-07-27T10:28:18.816Z,20.75
2022-07-27T10:30:49.287Z,22.50
2022-07-27T10:33:41.609Z,21.85
2022-07-27T10:36:16.917Z,20.10
2022-07-27T10:38:58.157Z,22.63
2022-07-27T10:41:32.103Z,21.42
2022-07-27T10:44:17.783Z,23.30
2022-07-27T10:46:54.004Z,22.60
2022-07-27T10:49:22.795Z,23.00
2022-07-27T10:51:53.106Z,23.27
2022-07-27T10:54:29.447Z,24.27
2022-07-27T10:56:58.768Z,23.52
2022-07-27T11:02:42.562Z,22.83
2022-07-27T11:05:32.527Z,22.30
2022-07-27T11:08:34.495Z,22.23
2022-07-27T11:10:47.245Z,22.20
2022-07-27T11:13:15.526Z,22.52
2022-07-27T11:16:09.679Z,21.67
2022-07-27T11:18:53.004Z,22.23
2022-07-27T11:21:26.773Z,22.10
2022-07-27T11:23:59.975Z,22.17
2022-07-27T11:26:29.077Z,22.58
2022-07-27T11:28:56.127Z,22.77
2022-07-27T11:31:38.621Z,22.42
2022-07-27T11:34:11.469Z,21.35
2022-07-27T11:36:44.819Z,24.05
2022-07-27T11:39:14.914Z,25.42
2022-07-27T11:44:30.782Z,24.10
2022-07-27T11:47:01.706Z,24.80
2022-07-27T11:49:31.114Z,24.25
2022-07-27T11:52:03.974Z,24.35
2022-07-27T11:54:35.216Z,23.48
2022-07-27T11:57:05.482Z,23.10
2022-07-27T11:59:45.693Z,22.85
2022-07-27T12:02:17.584Z,23.88
2022-07-27T12:04:46.419Z,23.02
2022-07-27T12:07:17.027Z,24.20
2022-07-27T12:09:50.631Z,26.63
2022-07-27T12:12:21.816Z,25.92
2022-07-27T12:14:51.874Z,23.35
2022-07-27T12:17:28.732Z,23.48
2022-07-27T12:19:59.946Z,25.92
2022-07-27T12:22:32.442Z,24.75
2022-07-27T12:25:05.711Z,23.48
2022-07-27T12:27:38.616Z,23.60
2022-07-27T12:30:08.696Z,23.48
2022-07-27T12:32:41.349Z,23.02
2022-07-27T12:35:24.684Z,23.67
2022-07-27T12:38:04.409Z,24.67
2022-07-27T12:40:32.535Z,23.10
2022-07-27T12:43:00.310Z,24.15
2022-07-27T12:45:33.582Z,23.60
2022-07-27T12:48:09.319Z,23.55
2022-07-27T12:50:37.087Z,22.80
2022-07-27T12:53:04.294Z,23.65
2022-07-27T12:55:31.309Z,22.77
2022-07-27T12:57:58.177Z,23.58
2022-07-27T13:00:33.617Z,23.52
2022-07-27T13:03:02.232Z,22.83
2022-07-27T13:05:29.240Z,23.27
2022-07-27T13:07:56.331Z,27.42
2022-07-27T13:10:23.260Z,27.00
2022-07-27T13:12:50.712Z,26.35
2022-07-27T13:15:18.243Z,26.60
2022-07-27T13:17:46.088Z,27.50
2022-07-27T13:20:13.824Z,26.33
2022-07-27T13:22:41.783Z,24.80
2022-07-27T13:25:16.346Z,26.45
2022-07-27T13:27:45.705Z,24.13
2022-07-27T13:30:14.322Z,26.65
2022-07-27T13:32:41.649Z,24.80
2022-07-27T13:35:12.217Z,25.13
2022-07-27T13:37:40.820Z,24.80
2022-07-27T13:40:09.035Z,23.88
2022-07-27T13:42:35.983Z,22.92
2022-07-27T13:45:09.705Z,23.52
2022-07-27T13:47:37.398Z,25.58
2022-07-27T13:50:04.984Z,23.80
2022-07-27T13:52:32.109Z,24.50
2022-07-27T13:54:58.930Z,24.55
2022-07-27T13:57:26.326Z,24.90
2022-07-27T13:59:53.577Z,24.90
2022-07-27T14:02:25.755Z,23.92
2022-07-27T14:04:53.251Z,24.63
2022-07-27T14:07:24.829Z,25.13
2022-07-27T14:10:13.402Z,25.92
2022-07-27T14:15:07.485Z,24.90
2022-07-27T14:17:34.225Z,24.63
2022-07-27T14:20:00.978Z,23.65
2022-07-27T14:22:27.732Z,24.35
2022-07-27T14:24:54.790Z,23.60
2022-07-27T14:27:21.574Z,23.77
2022-07-27T14:29:48.321Z,24.55
2022-07-27T14:32:15.149Z,24.70
2022-07-27T14:34:44.648Z,24.65
2022-07-27T14:37:11.511Z,24.08
2022-07-27T14:39:39.308Z,23.98
2022-07-27T14:42:06.559Z,23.33
2022-07-27T14:44:35.229Z,23.48
2022-07-27T14:47:02.125Z,23.88
2022-07-27T14:49:29.254Z,23.92
2022-07-27T14:51:56.715Z,23.95
2022-07-27T14:54:23.864Z,23.73
2022-07-27T14:56:50.841Z,24.27
2022-07-27T14:59:18.330Z,24.83
2022-07-27T15:01:45.282Z,23.75
2022-07-27T15:04:12.468Z,24.65
2022-07-27T15:06:39.462Z,24.45
2022-07-27T15:09:07.606Z,24.42
2022-07-27T15:11:34.862Z,24.38
2022-07-27T15:14:03.332Z,24.25
2022-07-27T15:16:32.087Z,23.35
2022-07-27T15:18:59.183Z,23.08
2022-07-27T15:21:26.414Z,23.98
2022-07-27T15:23:53.607Z,24.10
2022-07-27T15:26:20.588Z,24.60
2022-07-27T15:28:47.611Z,23.17
2022-07-27T15:31:14.580Z,24.27
2022-07-27T15:33:41.999Z,23.45
2022-07-27T15:36:09.046Z,23.58
2022-07-27T15:38:36.102Z,24.55
2022-07-27T15:41:03.083Z,24.15
2022-07-27T15:43:30.454Z,24.38
2022-07-27T15:45:57.221Z,23.67
2022-07-27T15:48:26.019Z,24.58
2022-07-27T15:50:54.347Z,24.50
2022-07-27T15:53:22.214Z,23.90
2022-07-27T15:55:52.325Z,24.40
2022-07-27T15:58:19.951Z,24.85
2022-07-27T16:00:52.206Z,24.27
2022-07-27T16:03:21.667Z,23.45
2022-07-27T16:05:49.636Z,25.30
2022-07-27T16:08:18.626Z,24.95
2022-07-27T16:10:47.331Z,24.25
2022-07-27T16:13:14.659Z,24.63
2022-07-27T16:16:00.958Z,25.30
2022-07-27T16:18:28.201Z,24.40
2022-07-27T16:20:55.646Z,24.30
2022-07-27T16:23:23.076Z,24.65
2022-07-27T16:26:03.920Z,24.50
2022-07-27T16:28:33.664Z,24.15
2022-07-27T16:31:00.512Z,23.80
2022-07-27T16:33:27.276Z,25.02
2022-07-27T16:35:54.063Z,23.98
2022-07-27T16:38:20.841Z,24.95
2022-07-27T16:40:47.691Z,24.65
2022-07-27T16:43:14.434Z,24.33
2022-07-27T16:45:41.291Z,23.75
2022-07-27T16:48:08.728Z,25.08
2022-07-27T16:50:35.531Z,24.38
2022-07-27T16:53:02.290Z,23.70
2022-07-27T16:55:30.023Z,23.90
2022-07-27T16:57:56.914Z,23.92
2022-07-27T17:00:23.682Z,23.23
2022-07-27T17:02:50.612Z,24.17
2022-07-27T17:05:17.953Z,22.70
2022-07-27T17:07:45.658Z,24.10
2022-07-27T17:10:12.418Z,23.73
2022-07-27T17:12:53.526Z,23.85
2022-07-27T17:15:21.629Z,24.73
2022-07-27T17:17:48.367Z,25.50
2022-07-27T17:20:15.129Z,25.58
2022-07-27T17:22:42.785Z,25.23
2022-07-27T17:25:09.590Z,24.88
2022-07-27T17:27:36.389Z,24.88
2022-07-27T17:30:04.546Z,25.13
2022-07-27T17:32:31.445Z,25.67
2022-07-27T17:34:58.218Z,25.25
2022-07-27T17:37:25.132Z,24.17
2022-07-27T17:39:54.100Z,24.38
2022-07-27T17:42:23.771Z,24.48
2022-07-27T17:44:50.612Z,24.08
2022-07-27T17:47:17.808Z,23.88
2022-07-27T17:49:45.763Z,23.63
2022-07-27T17:52:13.925Z,24.10
2022-07-27T17:54:41.221Z,22.98
2022-07-27T17:57:08.513Z,23.55
2022-07-27T17:59:38.015Z,24.58
2022-07-27T18:02:05.347Z,25.40
2022-07-27T18:04:38.927Z,23.05
2022-07-27T18:07:06.362Z,23.97
2022-07-27T18:09:33.615Z,23.58
2022-07-27T18:12:00.404Z,24.00
2022-07-27T18:14:27.216Z,22.88
2022-07-27T18:16:54.166Z,22.58
2022-07-27T18:19:21.200Z,22.42
2022-07-27T18:21:48.236Z,22.67
2022-07-27T18:24:19.318Z,22.17
2022-07-27T18:26:46.116Z,22.83
2022-07-27T18:29:14.795Z,22.35
2022-07-27T18:31:41.889Z,22.83
2022-07-27T18:34:12.778Z,22.73
2022-07-27T18:36:40.924Z,24.10
2022-07-27T18:39:07.728Z,23.40
2022-07-27T18:41:34.532Z,23.30
2022-07-27T18:44:02.007Z,23.38
2022-07-27T18:46:28.998Z,22.23
2022-07-27T18:48:55.836Z,22.80
2022-07-27T18:51:22.594Z,22.25
2022-07-27T18:53:49.268Z,22.25
2022-07-27T18:56:16.004Z,22.60
2022-07-27T18:58:49.894Z,23.25
2022-07-27T19:01:16.792Z,22.65
2022-07-27T19:03:43.817Z,22.33
2022-07-27T19:06:10.548Z,23.30
2022-07-27T19:08:41.201Z,21.00
2022-07-27T19:11:08.145Z,22.30
2022-07-27T19:13:40.538Z,21.40
2022-07-27T19:16:07.634Z,21.33
2022-07-27T19:18:34.294Z,20.92
2022-07-27T19:21:01.031Z,20.95
2022-07-27T19:23:28.078Z,20.42
2022-07-27T19:25:59.156Z,20.58
2022-07-27T19:28:26.966Z,21.25
2022-07-27T19:30:54.051Z,20.13
2022-07-27T19:33:20.755Z,20.63
2022-07-27T19:35:50.503Z,21.05
2022-07-27T19:38:25.303Z,20.65
2022-07-27T19:40:56.136Z,20.88
2022-07-27T19:43:23.351Z,20.95
2022-07-27T19:45:51.924Z,20.15
2022-07-27T19:48:18.858Z,20.60
2022-07-27T19:50:45.603Z,20.52
2022-07-27T19:53:18.076Z,20.73
2022-07-27T19:55:56.492Z,20.85
2022-07-27T19:58:23.600Z,21.13
2022-07-27T20:00:50.332Z,20.80
2022-07-27T20:03:20.504Z,20.90
2022-07-27T20:05:48.024Z,20.65
2022-07-27T20:08:15.425Z,20.05
2022-07-27T20:10:42.697Z,22.00
2022-07-27T20:13:10.151Z,20.63
2022-07-27T20:15:36.975Z,21.17
2022-07-27T20:18:03.943Z,21.45
2022-07-27T20:20:30.775Z,20.55
2022-07-27T20:22:58.348Z,20.98
2022-07-27T20:25:25.715Z,20.13
2022-07-27T20:27:53.827Z,20.20
2022-07-27T20:30:20.630Z,20.08
2022-07-27T20:32:49.059Z,19.02
2022-07-27T20:35:16.312Z,19.65
2022-07-27T20:37:44.845Z,18.70
2022-07-27T20:40:12.618Z,19.25
2022-07-27T20:42:41.172Z,18.35
2022-07-27T20:45:10.053Z,19.05
2022-07-27T20:47:40.606Z,18.92
2022-07-27T20:50:13.294Z,18.50
2022-07-27T20:52:40.760Z,18.30
2022-07-27T20:55:08.689Z,18.55
2022-07-27T20:57:35.841Z,17.98
2022-07-27T21:00:03.613Z,19.55
2022-07-27T21:02:30.364Z,18.65
2022-07-27T21:04:58.103Z,18.65
2022-07-27T21:07:25.793Z,18.42
2022-07-27T21:09:52.518Z,16.75
2022-07-27T21:12:19.229Z,17.35
2022-07-27T21:14:45.925Z,18.10
2022-07-27T21:17:13.309Z,18.08
2022-07-27T21:19:40.524Z,17.58
2022-07-27T21:22:07.294Z,16.85
2022-07-27T21:24:33.992Z,16.63
2022-07-27T21:27:04.558Z,17.80
2022-07-27T21:29:31.788Z,16.67
2022-07-27T21:31:58.792Z,16.00
2022-07-27T21:34:25.550Z,16.25
2022-07-27T21:36:52.321Z,16.42
2022-07-27T21:39:19.845Z,16.13
2022-07-27T21:41:46.880Z,16.00
2022-07-27T21:44:14.156Z,17.27
2022-07-27T21:46:41.605Z,16.83
2022-07-27T21:49:08.536Z,17.02
2022-07-27T21:51:35.548Z,16.42
2022-07-27T21:54:02.428Z,16.92
2022-07-27T21:56:29.108Z,17.00
2022-07-27T21:58:55.854Z,17.58
2022-07-27T22:01:22.613Z,17.52
2022-07-27T22:03:49.643Z,18.73
2022-07-27T22:06:16.835Z,18.10
2022-07-27T22:08:44.274Z,18.45
2022-07-27T22:11:11.062Z,17.70
2022-07-27T22:13:37.965Z,16.58
2022-07-27T22:16:05.437Z,17.98
2022-07-27T22:18:32.564Z,16.77
2022-07-27T22:20:59.266Z,15.63
2022-07-27T22:23:26.018Z,14.68
2022-07-27T22:25:52.775Z,15.68
2022-07-27T22:28:19.447Z,14.75
2022-07-27T22:31:00.118Z,15.40
2022-07-27T22:33:37.095Z,15.35
2022-07-27T22:36:07.433Z,16.65
2022-07-27T22:38:34.102Z,15.48
2022-07-27T22:41:00.764Z,14.55
2022-07-27T22:43:27.411Z,14.70
2022-07-27T22:45:54.703Z,15.07
2022-07-27T22:48:21.662Z,14.88
2022-07-27T22:50:48.555Z,15.38
2022-07-27T22:53:15.574Z,15.70
2022-07-27T22:55:42.445Z,14.85
2022-07-27T22:58:09.440Z,15.57
2022-07-27T23:00:36.239Z,14.75
2022-07-27T23:03:03.466Z,14.90
2022-07-27T23:05:30.244Z,14.45
2022-07-27T23:07:57.150Z,13.70
2022-07-27T23:10:42.795Z,14.10
2022-07-27T23:13:09.505Z,13.65
2022-07-27T23:15:37.907Z,14.85
2022-07-27T23:18:05.786Z,14.00
2022-07-27T23:20:33.038Z,14.27
2022-07-27T23:22:59.861Z,15.55
2022-07-27T23:25:36.047Z,15.20
2022-07-27T23:28:03.875Z,15.27
2022-07-27T23:30:30.835Z,15.23
2022-07-27T23:32:58.126Z,15.50
2022-07-27T23:35:24.890Z,16.17
2022-07-27T23:37:52.642Z,16.10
2022-07-27T23:40:19.617Z,14.30
2022-07-27T23:42:46.370Z,15.27
2022-07-27T23:45:13.461Z,15.07
2022-07-27T23:47:40.802Z,14.68
2022-07-27T23:50:09.259Z,15.30
2022-07-27T23:52:36.201Z,15.10
2022-07-27T23:55:03.576Z,14.60
2022-07-27T23:57:30.420Z,13.68
2022-07-27T23:59:57.227Z,14.93
